<?xml version="1.0" encoding="UTF-8"?>
<gpx version="1.1" creator="GPSBabel - http://www.gpsbabel.org" xmlns="http://www.topografix.com/GPX/1/1" xmlns:xsi="http://www.w3.org/2001/XMLSchema-instance">
  <metadata>
    <time>2024-08-29T08:12:50.362Z</time>
    <bounds minlat="44.530480000" minlon="4.453300000" maxlat="44.551130000" maxlon="4.489740000"/>
  </metadata>
  <trk>
    <name>randogps7-659</name>
    <trkseg>
      <trkpt lat="44.547750000" lon="4.489620000">
        <ele>296.000000</ele>
        <time>2024-08-20T07:34:54Z</time>
      </trkpt>
      <trkpt lat="44.548140000" lon="4.489600000">
        <ele>299.000000</ele>
        <time>2024-08-20T07:35:46Z</time>
      </trkpt>
      <trkpt lat="44.548430000" lon="4.489630000">
        <ele>301.000000</ele>
        <time>2024-08-20T07:36:25Z</time>
      </trkpt>
      <trkpt lat="44.549280000" lon="4.489480000">
        <ele>304.000000</ele>
        <time>2024-08-20T07:38:19Z</time>
      </trkpt>
      <trkpt lat="44.549260000" lon="4.488700000">
        <ele>305.000000</ele>
        <time>2024-08-20T07:39:33Z</time>
      </trkpt>
      <trkpt lat="44.549130000" lon="4.488240000">
        <ele>304.000000</ele>
        <time>2024-08-20T07:40:20Z</time>
      </trkpt>
      <trkpt lat="44.549110000" lon="4.487610000">
        <ele>307.000000</ele>
        <time>2024-08-20T07:41:20Z</time>
      </trkpt>
      <trkpt lat="44.548950000" lon="4.486880000">
        <ele>314.000000</ele>
        <time>2024-08-20T07:42:33Z</time>
      </trkpt>
      <trkpt lat="44.548750000" lon="4.486030000">
        <ele>320.000000</ele>
        <time>2024-08-20T07:43:58Z</time>
      </trkpt>
      <trkpt lat="44.549020000" lon="4.485600000">
        <ele>318.000000</ele>
        <time>2024-08-20T07:44:53Z</time>
      </trkpt>
      <trkpt lat="44.549800000" lon="4.485930000">
        <ele>323.000000</ele>
        <time>2024-08-20T07:46:41Z</time>
      </trkpt>
      <trkpt lat="44.549860000" lon="4.486360000">
        <ele>322.000000</ele>
        <time>2024-08-20T07:47:23Z</time>
      </trkpt>
      <trkpt lat="44.550080000" lon="4.483590000">
        <ele>337.000000</ele>
        <time>2024-08-20T07:51:48Z</time>
      </trkpt>
      <trkpt lat="44.549950000" lon="4.482490000">
        <ele>333.000000</ele>
        <time>2024-08-20T07:53:34Z</time>
      </trkpt>
      <trkpt lat="44.550480000" lon="4.482360000">
        <ele>342.000000</ele>
        <time>2024-08-20T07:54:46Z</time>
      </trkpt>
      <trkpt lat="44.551000000" lon="4.482250000">
        <ele>351.000000</ele>
        <time>2024-08-20T07:55:56Z</time>
      </trkpt>
      <trkpt lat="44.551130000" lon="4.482010000">
        <ele>354.000000</ele>
        <time>2024-08-20T07:56:25Z</time>
      </trkpt>
      <trkpt lat="44.550110000" lon="4.481130000">
        <ele>349.000000</ele>
        <time>2024-08-20T07:59:05Z</time>
      </trkpt>
      <trkpt lat="44.550040000" lon="4.478730000">
        <ele>356.000000</ele>
        <time>2024-08-20T08:02:53Z</time>
      </trkpt>
      <trkpt lat="44.549660000" lon="4.478190000">
        <ele>359.000000</ele>
        <time>2024-08-20T08:04:05Z</time>
      </trkpt>
      <trkpt lat="44.548610000" lon="4.477510000">
        <ele>365.000000</ele>
        <time>2024-08-20T08:06:40Z</time>
      </trkpt>
      <trkpt lat="44.548040000" lon="4.477360000">
        <ele>369.000000</ele>
        <time>2024-08-20T08:07:57Z</time>
      </trkpt>
      <trkpt lat="44.546810000" lon="4.477410000">
        <ele>379.000000</ele>
        <time>2024-08-20T08:10:41Z</time>
      </trkpt>
      <trkpt lat="44.545730000" lon="4.477380000">
        <ele>387.000000</ele>
        <time>2024-08-20T08:13:05Z</time>
      </trkpt>
      <trkpt lat="44.544560000" lon="4.477000000">
        <ele>395.000000</ele>
        <time>2024-08-20T08:15:46Z</time>
      </trkpt>
      <trkpt lat="44.543840000" lon="4.476230000">
        <ele>401.000000</ele>
        <time>2024-08-20T08:17:46Z</time>
      </trkpt>
      <trkpt lat="44.543580000" lon="4.475390000">
        <ele>399.000000</ele>
        <time>2024-08-20T08:19:13Z</time>
      </trkpt>
      <trkpt lat="44.543320000" lon="4.474520000">
        <ele>402.000000</ele>
        <time>2024-08-20T08:20:43Z</time>
      </trkpt>
      <trkpt lat="44.543530000" lon="4.473100000">
        <ele>397.000000</ele>
        <time>2024-08-20T08:23:01Z</time>
      </trkpt>
      <trkpt lat="44.543530000" lon="4.472500000">
        <ele>400.000000</ele>
        <time>2024-08-20T08:23:58Z</time>
      </trkpt>
      <trkpt lat="44.544020000" lon="4.471450000">
        <ele>407.000000</ele>
        <time>2024-08-20T08:25:58Z</time>
      </trkpt>
      <trkpt lat="44.543410000" lon="4.470770000">
        <ele>419.000000</ele>
        <time>2024-08-20T08:27:42Z</time>
      </trkpt>
      <trkpt lat="44.543210000" lon="4.469910000">
        <ele>416.000000</ele>
        <time>2024-08-20T08:29:08Z</time>
      </trkpt>
      <trkpt lat="44.543250000" lon="4.468880000">
        <ele>413.000000</ele>
        <time>2024-08-20T08:30:46Z</time>
      </trkpt>
      <trkpt lat="44.542810000" lon="4.468120000">
        <ele>409.000000</ele>
        <time>2024-08-20T08:32:19Z</time>
      </trkpt>
      <trkpt lat="44.542180000" lon="4.467500000">
        <ele>408.000000</ele>
        <time>2024-08-20T08:34:01Z</time>
      </trkpt>
      <trkpt lat="44.541440000" lon="4.467020000">
        <ele>401.000000</ele>
        <time>2024-08-20T08:35:50Z</time>
      </trkpt>
      <trkpt lat="44.542240000" lon="4.466560000">
        <ele>403.000000</ele>
        <time>2024-08-20T08:37:46Z</time>
      </trkpt>
      <trkpt lat="44.543300000" lon="4.465900000">
        <ele>394.000000</ele>
        <time>2024-08-20T08:40:20Z</time>
      </trkpt>
      <trkpt lat="44.544110000" lon="4.465260000">
        <ele>384.000000</ele>
        <time>2024-08-20T08:42:24Z</time>
      </trkpt>
      <trkpt lat="44.544570000" lon="4.464620000">
        <ele>378.000000</ele>
        <time>2024-08-20T08:43:51Z</time>
      </trkpt>
      <trkpt lat="44.544570000" lon="4.463860000">
        <ele>369.000000</ele>
        <time>2024-08-20T08:45:03Z</time>
      </trkpt>
      <trkpt lat="44.544140000" lon="4.462770000">
        <ele>362.000000</ele>
        <time>2024-08-20T08:47:02Z</time>
      </trkpt>
      <trkpt lat="44.543490000" lon="4.461620000">
        <ele>353.000000</ele>
        <time>2024-08-20T08:49:21Z</time>
      </trkpt>
      <trkpt lat="44.542580000" lon="4.460620000">
        <ele>343.000000</ele>
        <time>2024-08-20T08:51:56Z</time>
      </trkpt>
      <trkpt lat="44.541570000" lon="4.459660000">
        <ele>329.000000</ele>
        <time>2024-08-20T08:54:38Z</time>
      </trkpt>
      <trkpt lat="44.541670000" lon="4.459480000">
        <ele>331.000000</ele>
        <time>2024-08-20T08:55:00Z</time>
      </trkpt>
      <trkpt lat="44.541910000" lon="4.459410000">
        <ele>330.000000</ele>
        <time>2024-08-20T08:55:33Z</time>
      </trkpt>
      <trkpt lat="44.542040000" lon="4.458860000">
        <ele>323.000000</ele>
        <time>2024-08-20T08:56:28Z</time>
      </trkpt>
      <trkpt lat="44.541860000" lon="4.458860000">
        <ele>324.000000</ele>
        <time>2024-08-20T08:56:52Z</time>
      </trkpt>
      <trkpt lat="44.541810000" lon="4.458600000">
        <ele>320.000000</ele>
        <time>2024-08-20T08:57:17Z</time>
      </trkpt>
      <trkpt lat="44.541390000" lon="4.457590000">
        <ele>308.000000</ele>
        <time>2024-08-20T08:59:09Z</time>
      </trkpt>
      <trkpt lat="44.540850000" lon="4.456720000">
        <ele>292.000000</ele>
        <time>2024-08-20T09:00:58Z</time>
      </trkpt>
      <trkpt lat="44.540050000" lon="4.455500000">
        <ele>268.000000</ele>
        <time>2024-08-20T09:03:36Z</time>
      </trkpt>
      <trkpt lat="44.539150000" lon="4.454390000">
        <ele>237.000000</ele>
        <time>2024-08-20T09:06:16Z</time>
      </trkpt>
      <trkpt lat="44.539170000" lon="4.453950000">
        <ele>232.000000</ele>
        <time>2024-08-20T09:06:58Z</time>
      </trkpt>
      <trkpt lat="44.538880000" lon="4.454150000">
        <ele>232.000000</ele>
        <time>2024-08-20T09:07:41Z</time>
      </trkpt>
      <trkpt lat="44.538550000" lon="4.453770000">
        <ele>229.000000</ele>
        <time>2024-08-20T09:08:38Z</time>
      </trkpt>
      <trkpt lat="44.538480000" lon="4.453300000">
        <ele>233.000000</ele>
        <time>2024-08-20T09:09:24Z</time>
      </trkpt>
      <trkpt lat="44.538250000" lon="4.453740000">
        <ele>233.000000</ele>
        <time>2024-08-20T09:10:16Z</time>
      </trkpt>
      <trkpt lat="44.537920000" lon="4.454640000">
        <ele>231.000000</ele>
        <time>2024-08-20T09:11:52Z</time>
      </trkpt>
      <trkpt lat="44.537900000" lon="4.454850000">
        <ele>230.000000</ele>
        <time>2024-08-20T09:12:12Z</time>
      </trkpt>
      <trkpt lat="44.537680000" lon="4.455020000">
        <ele>231.000000</ele>
        <time>2024-08-20T09:12:46Z</time>
      </trkpt>
      <trkpt lat="44.537330000" lon="4.455690000">
        <ele>238.000000</ele>
        <time>2024-08-20T09:14:05Z</time>
      </trkpt>
      <trkpt lat="44.536920000" lon="4.456320000">
        <ele>245.000000</ele>
        <time>2024-08-20T09:15:26Z</time>
      </trkpt>
      <trkpt lat="44.536510000" lon="4.456350000">
        <ele>248.000000</ele>
        <time>2024-08-20T09:16:21Z</time>
      </trkpt>
      <trkpt lat="44.536320000" lon="4.456830000">
        <ele>247.000000</ele>
        <time>2024-08-20T09:17:13Z</time>
      </trkpt>
      <trkpt lat="44.535650000" lon="4.457100000">
        <ele>255.000000</ele>
        <time>2024-08-20T09:18:46Z</time>
      </trkpt>
      <trkpt lat="44.535050000" lon="4.457330000">
        <ele>256.000000</ele>
        <time>2024-08-20T09:20:09Z</time>
      </trkpt>
      <trkpt lat="44.533690000" lon="4.457490000">
        <ele>261.000000</ele>
        <time>2024-08-20T09:23:11Z</time>
      </trkpt>
      <trkpt lat="44.533350000" lon="4.457790000">
        <ele>262.000000</ele>
        <time>2024-08-20T09:24:04Z</time>
      </trkpt>
      <trkpt lat="44.532780000" lon="4.458390000">
        <ele>268.000000</ele>
        <time>2024-08-20T09:25:40Z</time>
      </trkpt>
      <trkpt lat="44.532960000" lon="4.459300000">
        <ele>275.000000</ele>
        <time>2024-08-20T09:27:09Z</time>
      </trkpt>
      <trkpt lat="44.532940000" lon="4.460300000">
        <ele>285.000000</ele>
        <time>2024-08-20T09:28:45Z</time>
      </trkpt>
      <trkpt lat="44.533020000" lon="4.461080000">
        <ele>286.000000</ele>
        <time>2024-08-20T09:30:00Z</time>
      </trkpt>
      <trkpt lat="44.533000000" lon="4.461190000">
        <ele>287.000000</ele>
        <time>2024-08-20T09:30:10Z</time>
      </trkpt>
      <trkpt lat="44.532790000" lon="4.461540000">
        <ele>295.000000</ele>
        <time>2024-08-20T09:30:54Z</time>
      </trkpt>
      <trkpt lat="44.533030000" lon="4.461760000">
        <ele>288.000000</ele>
        <time>2024-08-20T09:31:32Z</time>
      </trkpt>
      <trkpt lat="44.533030000" lon="4.461900000">
        <ele>290.000000</ele>
        <time>2024-08-20T09:31:45Z</time>
      </trkpt>
      <trkpt lat="44.533230000" lon="4.462450000">
        <ele>290.000000</ele>
        <time>2024-08-20T09:32:44Z</time>
      </trkpt>
      <trkpt lat="44.533160000" lon="4.463280000">
        <ele>302.000000</ele>
        <time>2024-08-20T09:34:04Z</time>
      </trkpt>
      <trkpt lat="44.533050000" lon="4.463920000">
        <ele>309.000000</ele>
        <time>2024-08-20T09:35:06Z</time>
      </trkpt>
      <trkpt lat="44.532930000" lon="4.464590000">
        <ele>314.000000</ele>
        <time>2024-08-20T09:36:12Z</time>
      </trkpt>
      <trkpt lat="44.532650000" lon="4.464680000">
        <ele>321.000000</ele>
        <time>2024-08-20T09:36:50Z</time>
      </trkpt>
      <trkpt lat="44.532720000" lon="4.464850000">
        <ele>319.000000</ele>
        <time>2024-08-20T09:37:09Z</time>
      </trkpt>
      <trkpt lat="44.532490000" lon="4.465400000">
        <ele>321.000000</ele>
        <time>2024-08-20T09:38:10Z</time>
      </trkpt>
      <trkpt lat="44.532280000" lon="4.466010000">
        <ele>330.000000</ele>
        <time>2024-08-20T09:39:14Z</time>
      </trkpt>
      <trkpt lat="44.532160000" lon="4.466650000">
        <ele>334.000000</ele>
        <time>2024-08-20T09:40:17Z</time>
      </trkpt>
      <trkpt lat="44.531890000" lon="4.466920000">
        <ele>341.000000</ele>
        <time>2024-08-20T09:41:01Z</time>
      </trkpt>
      <trkpt lat="44.531650000" lon="4.467070000">
        <ele>346.000000</ele>
        <time>2024-08-20T09:41:36Z</time>
      </trkpt>
      <trkpt lat="44.531960000" lon="4.467610000">
        <ele>342.000000</ele>
        <time>2024-08-20T09:42:42Z</time>
      </trkpt>
      <trkpt lat="44.531790000" lon="4.468530000">
        <ele>351.000000</ele>
        <time>2024-08-20T09:44:13Z</time>
      </trkpt>
      <trkpt lat="44.531440000" lon="4.469130000">
        <ele>360.000000</ele>
        <time>2024-08-20T09:45:27Z</time>
      </trkpt>
      <trkpt lat="44.530970000" lon="4.469630000">
        <ele>373.000000</ele>
        <time>2024-08-20T09:46:45Z</time>
      </trkpt>
      <trkpt lat="44.530480000" lon="4.469900000">
        <ele>382.000000</ele>
        <time>2024-08-20T09:47:55Z</time>
      </trkpt>
      <trkpt lat="44.530840000" lon="4.470520000">
        <ele>383.000000</ele>
        <time>2024-08-20T09:49:12Z</time>
      </trkpt>
      <trkpt lat="44.531680000" lon="4.470530000">
        <ele>380.000000</ele>
        <time>2024-08-20T09:51:04Z</time>
      </trkpt>
      <trkpt lat="44.532310000" lon="4.470350000">
        <ele>385.000000</ele>
        <time>2024-08-20T09:52:29Z</time>
      </trkpt>
      <trkpt lat="44.532530000" lon="4.470460000">
        <ele>390.000000</ele>
        <time>2024-08-20T09:53:01Z</time>
      </trkpt>
      <trkpt lat="44.532380000" lon="4.470550000">
        <ele>389.000000</ele>
        <time>2024-08-20T09:53:22Z</time>
      </trkpt>
      <trkpt lat="44.532510000" lon="4.470620000">
        <ele>392.000000</ele>
        <time>2024-08-20T09:53:41Z</time>
      </trkpt>
      <trkpt lat="44.532430000" lon="4.470730000">
        <ele>393.000000</ele>
        <time>2024-08-20T09:53:56Z</time>
      </trkpt>
      <trkpt lat="44.532460000" lon="4.470910000">
        <ele>394.000000</ele>
        <time>2024-08-20T09:54:14Z</time>
      </trkpt>
      <trkpt lat="44.532760000" lon="4.470700000">
        <ele>395.000000</ele>
        <time>2024-08-20T09:54:58Z</time>
      </trkpt>
      <trkpt lat="44.533730000" lon="4.470840000">
        <ele>399.000000</ele>
        <time>2024-08-20T09:57:08Z</time>
      </trkpt>
      <trkpt lat="44.535390000" lon="4.469640000">
        <ele>403.000000</ele>
        <time>2024-08-20T10:01:18Z</time>
      </trkpt>
      <trkpt lat="44.535990000" lon="4.468830000">
        <ele>400.000000</ele>
        <time>2024-08-20T10:03:09Z</time>
      </trkpt>
      <trkpt lat="44.536720000" lon="4.467820000">
        <ele>404.000000</ele>
        <time>2024-08-20T10:05:26Z</time>
      </trkpt>
      <trkpt lat="44.538210000" lon="4.467880000">
        <ele>402.000000</ele>
        <time>2024-08-20T10:08:44Z</time>
      </trkpt>
      <trkpt lat="44.539130000" lon="4.467550000">
        <ele>400.000000</ele>
        <time>2024-08-20T10:10:51Z</time>
      </trkpt>
      <trkpt lat="44.539850000" lon="4.467200000">
        <ele>394.000000</ele>
        <time>2024-08-20T10:12:33Z</time>
      </trkpt>
      <trkpt lat="44.540530000" lon="4.466950000">
        <ele>396.000000</ele>
        <time>2024-08-20T10:14:07Z</time>
      </trkpt>
      <trkpt lat="44.541240000" lon="4.466950000">
        <ele>400.000000</ele>
        <time>2024-08-20T10:15:41Z</time>
      </trkpt>
      <trkpt lat="44.542040000" lon="4.467360000">
        <ele>406.000000</ele>
        <time>2024-08-20T10:17:35Z</time>
      </trkpt>
      <trkpt lat="44.543070000" lon="4.468650000">
        <ele>411.000000</ele>
        <time>2024-08-20T10:20:39Z</time>
      </trkpt>
      <trkpt lat="44.543290000" lon="4.469250000">
        <ele>414.000000</ele>
        <time>2024-08-20T10:21:43Z</time>
      </trkpt>
      <trkpt lat="44.543260000" lon="4.469600000">
        <ele>415.000000</ele>
        <time>2024-08-20T10:22:17Z</time>
      </trkpt>
      <trkpt lat="44.543310000" lon="4.470300000">
        <ele>418.000000</ele>
        <time>2024-08-20T10:23:24Z</time>
      </trkpt>
      <trkpt lat="44.543720000" lon="4.470990000">
        <ele>411.000000</ele>
        <time>2024-08-20T10:24:49Z</time>
      </trkpt>
      <trkpt lat="44.544130000" lon="4.471630000">
        <ele>408.000000</ele>
        <time>2024-08-20T10:26:11Z</time>
      </trkpt>
      <trkpt lat="44.543690000" lon="4.472290000">
        <ele>401.000000</ele>
        <time>2024-08-20T10:27:37Z</time>
      </trkpt>
      <trkpt lat="44.543570000" lon="4.472710000">
        <ele>398.000000</ele>
        <time>2024-08-20T10:28:20Z</time>
      </trkpt>
      <trkpt lat="44.543550000" lon="4.473330000">
        <ele>395.000000</ele>
        <time>2024-08-20T10:29:19Z</time>
      </trkpt>
      <trkpt lat="44.543280000" lon="4.474280000">
        <ele>400.000000</ele>
        <time>2024-08-20T10:30:56Z</time>
      </trkpt>
      <trkpt lat="44.543250000" lon="4.474900000">
        <ele>400.000000</ele>
        <time>2024-08-20T10:31:56Z</time>
      </trkpt>
      <trkpt lat="44.543310000" lon="4.475580000">
        <ele>404.000000</ele>
        <time>2024-08-20T10:33:01Z</time>
      </trkpt>
      <trkpt lat="44.543480000" lon="4.476580000">
        <ele>411.000000</ele>
        <time>2024-08-20T10:34:39Z</time>
      </trkpt>
      <trkpt lat="44.544160000" lon="4.477140000">
        <ele>402.000000</ele>
        <time>2024-08-20T10:36:24Z</time>
      </trkpt>
      <trkpt lat="44.544850000" lon="4.477740000">
        <ele>397.000000</ele>
        <time>2024-08-20T10:38:12Z</time>
      </trkpt>
      <trkpt lat="44.545280000" lon="4.478570000">
        <ele>393.000000</ele>
        <time>2024-08-20T10:39:50Z</time>
      </trkpt>
      <trkpt lat="44.545360000" lon="4.479350000">
        <ele>389.000000</ele>
        <time>2024-08-20T10:41:05Z</time>
      </trkpt>
      <trkpt lat="44.545590000" lon="4.479540000">
        <ele>388.000000</ele>
        <time>2024-08-20T10:41:40Z</time>
      </trkpt>
      <trkpt lat="44.545860000" lon="4.480840000">
        <ele>381.000000</ele>
        <time>2024-08-20T10:43:49Z</time>
      </trkpt>
      <trkpt lat="44.546080000" lon="4.481630000">
        <ele>374.000000</ele>
        <time>2024-08-20T10:45:10Z</time>
      </trkpt>
      <trkpt lat="44.546810000" lon="4.482520000">
        <ele>363.000000</ele>
        <time>2024-08-20T10:47:19Z</time>
      </trkpt>
      <trkpt lat="44.547390000" lon="4.483100000">
        <ele>354.000000</ele>
        <time>2024-08-20T10:48:54Z</time>
      </trkpt>
      <trkpt lat="44.547300000" lon="4.483520000">
        <ele>355.000000</ele>
        <time>2024-08-20T10:49:35Z</time>
      </trkpt>
      <trkpt lat="44.548230000" lon="4.483660000">
        <ele>343.000000</ele>
        <time>2024-08-20T10:51:40Z</time>
      </trkpt>
      <trkpt lat="44.548910000" lon="4.484300000">
        <ele>328.000000</ele>
        <time>2024-08-20T10:53:30Z</time>
      </trkpt>
      <trkpt lat="44.549080000" lon="4.484440000">
        <ele>324.000000</ele>
        <time>2024-08-20T10:53:56Z</time>
      </trkpt>
      <trkpt lat="44.549080000" lon="4.485040000">
        <ele>321.000000</ele>
        <time>2024-08-20T10:54:53Z</time>
      </trkpt>
      <trkpt lat="44.549030000" lon="4.485430000">
        <ele>319.000000</ele>
        <time>2024-08-20T10:55:31Z</time>
      </trkpt>
      <trkpt lat="44.548890000" lon="4.485820000">
        <ele>318.000000</ele>
        <time>2024-08-20T10:56:12Z</time>
      </trkpt>
      <trkpt lat="44.548750000" lon="4.486220000">
        <ele>319.000000</ele>
        <time>2024-08-20T10:56:55Z</time>
      </trkpt>
      <trkpt lat="44.548870000" lon="4.486660000">
        <ele>316.000000</ele>
        <time>2024-08-20T10:57:39Z</time>
      </trkpt>
      <trkpt lat="44.549100000" lon="4.487360000">
        <ele>309.000000</ele>
        <time>2024-08-20T10:58:53Z</time>
      </trkpt>
      <trkpt lat="44.549160000" lon="4.487930000">
        <ele>305.000000</ele>
        <time>2024-08-20T10:59:47Z</time>
      </trkpt>
      <trkpt lat="44.549130000" lon="4.488490000">
        <ele>304.000000</ele>
        <time>2024-08-20T11:00:41Z</time>
      </trkpt>
      <trkpt lat="44.549210000" lon="4.488970000">
        <ele>304.000000</ele>
        <time>2024-08-20T11:01:28Z</time>
      </trkpt>
      <trkpt lat="44.549210000" lon="4.489330000">
        <ele>304.000000</ele>
        <time>2024-08-20T11:02:02Z</time>
      </trkpt>
      <trkpt lat="44.549090000" lon="4.489450000">
        <ele>303.000000</ele>
        <time>2024-08-20T11:02:22Z</time>
      </trkpt>
      <trkpt lat="44.547610000" lon="4.489740000">
        <ele>295.000000</ele>
        <time>2024-08-20T11:05:41Z</time>
      </trkpt>
    </trkseg>
  </trk>
</gpx>
